Time;durP1;ratioP1;P1;durP2;ratioP2;P2;SDS_P1;SDS_P2;PMS_P1;PMS_P2;Temp;Humidity;BMP_temperature;BMP_pressure;BME280_temperature;BME280_humidity;BME280_pressure;Samples;Min_cycle;Max_cycle;Signal;HPM_P1;HPM_P2
2021/07/06 00:01:49;;;;;;;11.30;5.90;;;;;;;16.41;62.74;100043.56;5092506;28;20507;-79
2021/07/06 00:04:34;;;;;;;11.43;6.65;;;;;;;16.47;62.72;100050.41;5094857;28;20047;-80
2021/07/06 00:07:20;;;;;;;9.13;6.28;;;;;;;16.46;62.61;100044.25;5093062;28;21649;-78
2021/07/06 00:10:06;;;;;;;10.45;6.88;;;;;;;16.59;62.48;100073.66;5103505;28;20012;-78
2021/07/06 00:12:33;;;;;;;14.98;6.97;;;;;;;16.59;62.46;100070.19;5081402;28;20039;-79
2021/07/06 00:15:23;;;;;;;10.13;7.15;;;;;;;16.52;62.47;100064.25;5092631;28;20039;-79
2021/07/06 00:17:53;;;;;;;17.65;7.78;;;;;;;16.44;62.37;100061.81;5093378;28;20063;-79
2021/07/06 00:20:38;;;;;;;10.02;6.93;;;;;;;16.49;62.60;100067.81;5099245;28;20097;-78
2021/07/06 00:23:04;;;;;;;10.00;7.53;;;;;;;16.44;62.44;100063.59;5083284;28;20040;-78
2021/07/06 00:25:48;;;;;;;12.05;7.38;;;;;;;16.32;62.41;100051.69;5096621;28;20043;-79
2021/07/06 00:28:33;;;;;;;11.07;7.10;;;;;;;16.39;62.74;100061.97;5095113;28;20044;-79
2021/07/06 00:31:00;;;;;;;10.43;6.53;;;;;;;16.44;62.62;100074.97;5095326;28;20497;-79
2021/07/06 00:33:31;;;;;;;10.77;7.00;;;;;;;16.47;62.85;100076.66;5095619;28;20384;-78
2021/07/06 00:36:08;;;;;;;9.95;6.28;;;;;;;16.27;62.51;100050.06;5093471;28;20097;-81
2021/07/06 00:38:52;;;;;;;10.93;6.80;;;;;;;16.33;62.81;100064.75;5091728;28;20044;-80
2021/07/06 00:41:39;;;;;;;15.25;8.15;;;;;;;16.38;62.58;100072.53;5092368;28;20177;-79
2021/07/06 00:44:05;;;;;;;12.60;7.25;;;;;;;16.37;63.14;100081.31;5093808;28;20040;-80
2021/07/06 00:46:49;;;;;;;22.25;7.65;;;;;;;16.29;62.74;100072.78;5094727;28;20051;-79
2021/07/06 00:49:34;;;;;;;12.23;7.60;;;;;;;16.30;63.04;100085.00;5074646;28;20036;-79
2021/07/06 00:52:03;;;;;;;12.13;7.00;;;;;;;16.18;63.08;100071.34;5074134;28;20047;-79
2021/07/06 00:54:28;;;;;;;11.07;6.53;;;;;;;16.23;63.51;100072.03;5073722;28;20527;-81
2021/07/06 00:57:14;;;;;;;10.55;6.82;;;;;;;16.27;63.26;100081.56;5073722;28;20504;-79
2021/07/06 01:00:08;;;;;;;10.20;6.38;;;;;;;16.22;63.36;100074.72;5083192;28;20032;-81
2021/07/06 01:02:53;;;;;;;12.90;7.30;;;;;;;16.18;63.60;100080.97;5093277;28;20048;-79
2021/07/06 01:05:22;;;;;;;12.15;8.05;;;;;;;16.15;63.43;100092.41;5090791;28;20036;-80
2021/07/06 01:08:07;;;;;;;11.68;7.07;;;;;;;16.13;63.78;100085.47;5091265;28;20313;-78
2021/07/06 01:10:52;;;;;;;10.25;6.40;;;;;;;16.12;63.76;100095.13;5097593;28;20082;-78
2021/07/06 01:13:38;;;;;;;11.15;7.18;;;;;;;16.05;63.66;100083.06;5099610;28;20039;-79
2021/07/06 01:16:22;;;;;;;13.00;7.10;;;;;;;16.01;63.71;100094.53;5124471;28;20027;-80
2021/07/06 01:18:48;;;;;;;9.02;6.88;;;;;;;15.96;63.70;100098.16;5106271;28;20048;-80
2021/07/06 01:21:32;;;;;;;12.05;6.90;;;;;;;16.01;63.97;100097.16;5117396;28;20044;-80
2021/07/06 01:24:17;;;;;;;11.75;7.60;;;;;;;15.99;63.75;100099.84;5103251;28;20059;-78
2021/07/06 01:27:01;;;;;;;11.98;7.25;;;;;;;15.94;64.01;100099.97;5117303;28;20050;-80
2021/07/06 01:29:46;;;;;;;16.65;7.95;;;;;;;15.94;63.79;100109.59;5101505;28;20490;-79
2021/07/06 01:32:11;;;;;;;15.45;7.95;;;;;;;15.94;64.10;100105.22;5097642;28;20047;-79
2021/07/06 01:34:37;;;;;;;11.65;7.70;;;;;;;15.84;64.20;100095.81;5081930;28;20046;-79
2021/07/06 01:37:22;;;;;;;11.98;7.32;;;;;;;15.75;64.42;100085.56;5101274;28;20036;-77
2021/07/06 01:39:49;;;;;;;12.43;7.47;;;;;;;15.88;64.30;100118.47;5115932;28;20038;-78
2021/07/06 01:42:33;;;;;;;16.52;8.30;;;;;;;15.80;64.21;100099.41;5115537;28;20103;-79
2021/07/06 01:45:25;;;;;;;15.52;7.30;;;;;;;15.88;64.50;100126.34;5095581;28;20531;-79
2021/07/06 01:48:11;;;;;;;15.15;7.75;;;;;;;15.88;64.66;100131.59;5093652;28;20039;-80
2021/07/06 01:50:55;;;;;;;13.40;7.40;;;;;;;15.86;64.79;100124.69;5080670;28;20070;-79
2021/07/06 01:53:40;;;;;;;21.48;7.90;;;;;;;15.89;64.74;100128.09;5096168;28;20044;-79
2021/07/06 01:56:24;;;;;;;17.10;7.90;;;;;;;15.88;64.82;100126.34;5094318;28;20124;-79
2021/07/06 01:59:09;;;;;;;14.38;7.45;;;;;;;15.80;64.92;100107.28;5090381;28;20031;-79
2021/07/06 02:01:55;;;;;;;12.43;7.25;;;;;;;15.88;65.04;100123.72;5074716;28;20522;-80
2021/07/06 02:04:21;;;;;;;11.77;8.05;;;;;;;15.98;65.12;100129.59;5056201;28;20547;-78
2021/07/06 02:07:05;;;;;;;15.35;8.50;;;;;;;15.96;64.83;100129.66;5070499;28;20083;-81
2021/07/06 02:09:50;;;;;;;12.68;7.95;;;;;;;15.93;65.10;100107.84;5085692;28;20032;-78
2021/07/06 02:12:34;;;;;;;15.57;7.93;;;;;;;16.04;64.96;100123.31;5093723;28;20097;-80
2021/07/06 02:15:01;;;;;;;13.23;8.25;;;;;;;16.09;64.94;100119.69;5077469;28;20441;-77
2021/07/06 02:17:46;;;;;;;12.23;7.93;;;;;;;16.23;64.86;100147.34;5094555;28;20040;-79
2021/07/06 02:20:30;;;;;;;15.30;8.20;;;;;;;16.13;64.72;100115.22;5079584;28;20044;-79
2021/07/06 02:23:15;;;;;;;13.23;7.53;;;;;;;16.36;65.04;100132.09;5109912;28;20036;-79
2021/07/06 02:26:03;;;;;;;17.35;8.55;;;;;;;16.45;64.73;100144.97;5094109;28;20121;-80
2021/07/06 02:28:47;;;;;;;17.73;8.18;;;;;;;16.55;64.69;100140.34;5093837;28;20036;-79
2021/07/06 02:31:31;;;;;;;14.10;8.48;;;;;;;16.56;64.72;100124.53;5096085;28;20039;-81
2021/07/06 02:34:17;;;;;;;10.90;7.18;;;;;;;16.73;64.63;100136.31;5096195;28;20422;-79
2021/07/06 02:36:43;;;;;;;14.35;7.22;;;;;;;16.81;64.41;100129.06;5095293;28;20427;-78
2021/07/06 02:39:09;;;;;;;12.95;7.85;;;;;;;16.84;64.45;100120.22;5094680;28;20042;-79
2021/07/06 02:41:53;;;;;;;14.70;8.07;;;;;;;17.08;64.09;100137.06;5094939;28;20063;-79
2021/07/06 02:44:38;;;;;;;15.30;8.43;;;;;;;17.15;63.57;100130.69;5095114;28;20036;-79
2021/07/06 02:47:04;;;;;;;15.88;7.90;;;;;;;17.26;63.66;100126.88;5096492;28;20059;-79
2021/07/06 02:49:30;;;;;;;15.73;7.45;;;;;;;17.29;63.58;100122.38;5094291;28;20557;-80
2021/07/06 02:52:14;;;;;;;18.40;7.85;;;;;;;17.50;63.34;100142.81;5094669;28;20043;-78
2021/07/06 02:54:40;;;;;;;14.70;8.00;;;;;;;17.61;63.18;100143.31;5093821;28;20040;-80
2021/07/06 02:57:09;;;;;;;12.77;7.68;;;;;;;17.74;62.87;100142.00;5092290;28;20048;-81
2021/07/06 02:59:54;;;;;;;14.48;7.45;;;;;;;17.88;62.67;100153.84;5093728;28;20044;-80
2021/07/06 03:02:20;;;;;;;12.13;7.18;;;;;;;17.85;62.39;100135.50;5092435;28;20108;-80
2021/07/06 03:05:08;;;;;;;13.25;7.38;;;;;;;18.03;62.10;100140.16;5093326;28;20044;-81
2021/07/06 03:07:53;;;;;;;14.32;8.35;;;;;;;18.16;61.93;100143.25;5094245;28;20094;-78
2021/07/06 03:10:39;;;;;;;16.15;7.88;;;;;;;18.10;61.45;100119.75;5078527;28;20447;-79
2021/07/06 03:13:05;;;;;;;14.93;7.50;;;;;;;18.34;61.59;100148.75;5073853;28;20104;-79
2021/07/06 03:15:49;;;;;;;16.23;8.27;;;;;;;18.43;61.25;100142.31;5076375;28;20056;-80
2021/07/06 03:18:34;;;;;;;13.15;7.82;;;;;;;18.53;61.20;100133.16;5106278;28;20031;-81
2021/07/06 03:21:18;;;;;;;16.40;7.88;;;;;;;18.73;60.83;100144.75;5101690;28;20032;-78
2021/07/06 03:23:44;;;;;;;13.15;7.82;;;;;;;18.89;60.59;100152.94;5100279;28;20044;-79
2021/07/06 03:26:11;;;;;;;10.77;7.65;;;;;;;18.97;60.28;100150.91;5101719;28;20035;-77
2021/07/06 03:28:38;;;;;;;15.40;7.97;;;;;;;19.01;60.05;100144.56;5110770;28;20036;-79
2021/07/06 03:31:04;;;;;;;18.15;8.25;;;;;;;19.08;60.06;100132.03;5107470;28;20049;-81
2021/07/06 03:33:48;;;;;;;16.92;7.88;;;;;;;19.21;59.42;100135.91;5099306;28;20073;-79
2021/07/06 03:36:14;;;;;;;16.10;7.63;;;;;;;19.38;59.50;100145.78;5095457;28;20123;-83
2021/07/06 03:38:58;;;;;;;13.60;7.63;;;;;;;19.52;59.10;100145.25;5095924;28;20044;-79
2021/07/06 03:41:43;;;;;;;13.38;7.45;;;;;;;19.70;59.01;100146.25;5096952;28;20032;-79
2021/07/06 03:44:27;;;;;;;13.90;7.78;;;;;;;19.81;58.39;100148.44;5098155;28;20084;-79
2021/07/06 03:47:12;;;;;;;13.60;7.35;;;;;;;19.99;58.48;100135.41;5098838;28;20046;-80
2021/07/06 03:49:58;;;;;;;16.05;7.45;;;;;;;20.25;57.76;100149.28;5115014;28;20043;-79
2021/07/06 03:52:43;;;;;;;16.38;7.93;;;;;;;20.27;57.26;100129.81;5114853;28;20036;-80
2021/07/06 03:55:27;;;;;;;14.15;8.32;;;;;;;20.45;57.05;100143.97;5110758;28;20047;-79
2021/07/06 03:57:55;;;;;;;11.50;7.63;;;;;;;20.58;56.83;100146.06;5115157;28;20094;-78
2021/07/06 04:00:40;;;;;;;11.88;7.72;;;;;;;20.76;56.49;100145.25;5115433;28;20056;-80
2021/07/06 04:03:25;;;;;;;13.98;8.32;;;;;;;20.81;56.51;100142.41;5113170;28;20038;-81
2021/07/06 04:05:52;;;;;;;14.20;8.05;;;;;;;20.88;56.06;100159.72;5094670;28;20043;-80
2021/07/06 04:08:37;;;;;;;10.50;7.65;;;;;;;20.94;55.21;100165.66;5098962;28;20048;-79
2021/07/06 04:11:04;;;;;;;13.07;7.50;;;;;;;20.89;55.31;100161.41;5076557;28;20059;-80
2021/07/06 04:13:30;;;;;;;15.68;11.10;;;;;;;20.96;54.82;100169.09;5099768;28;20039;-81
2021/07/06 04:16:15;;;;;;;15.52;8.35;;;;;;;20.91;54.67;100161.34;5098076;28;20416;-80
2021/07/06 04:19:00;;;;;;;11.63;7.30;;;;;;;21.12;54.55;100150.69;5098925;28;20070;-81
2021/07/06 04:21:44;;;;;;;11.00;7.05;;;;;;;21.28;54.28;100140.22;5102173;28;20036;-80
2021/07/06 04:24:30;;;;;;;16.65;7.07;;;;;;;21.54;53.86;100149.53;5082809;28;20046;-80
2021/07/06 04:27:14;;;;;;;12.20;6.97;;;;;;;21.81;53.46;100154.44;5104337;28;20048;-79
2021/07/06 04:29:40;;;;;;;11.93;7.00;;;;;;;21.96;53.06;100140.41;5109334;28;20088;-78
2021/07/06 04:32:24;;;;;;;9.02;6.90;;;;;;;22.22;52.78;100153.25;5097854;28;20044;-79
2021/07/06 04:35:09;;;;;;;11.23;6.90;;;;;;;22.38;52.00;100156.81;5109380;28;20087;-77
2021/07/06 04:37:53;;;;;;;11.05;6.85;;;;;;;22.54;51.80;100156.91;5096518;28;20388;-78
2021/07/06 04:40:38;;;;;;;11.00;6.93;;;;;;;22.77;51.51;100157.47;5092942;28;20051;-79
2021/07/06 04:43:23;;;;;;;12.48;6.82;;;;;;;22.93;50.98;100148.66;5093771;28;20043;-81
2021/07/06 04:45:49;;;;;;;19.17;7.38;;;;;;;22.94;50.51;100131.81;5075924;28;20044;-77
2021/07/06 04:48:15;;;;;;;12.93;7.22;;;;;;;23.17;50.74;100170.34;5093422;28;20044;-78
2021/07/06 04:50:41;;;;;;;11.68;7.00;;;;;;;23.25;50.37;100151.34;5097100;28;20044;-80
2021/07/06 04:53:07;;;;;;;11.40;6.63;;;;;;;23.51;49.89;100165.78;5083044;28;20048;-81
2021/07/06 04:55:53;;;;;;;7.82;5.95;;;;;;;23.62;49.66;100146.59;5101249;28;20123;-81
2021/07/06 04:58:19;;;;;;;9.63;6.28;;;;;;;23.72;48.89;100139.78;5096253;28;20036;-79
2021/07/06 05:00:45;;;;;;;8.85;6.43;;;;;;;23.82;48.61;100131.28;5078931;28;20088;-80
2021/07/06 05:03:33;;;;;;;11.13;6.82;;;;;;;24.17;48.33;100165.53;5096868;28;20115;-80
2021/07/06 05:06:00;;;;;;;9.55;6.10;;;;;;;24.33;48.01;100158.38;5098056;28;20498;-80
2021/07/06 05:08:44;;;;;;;11.35;6.18;;;;;;;24.52;47.65;100149.25;5095671;28;20059;-79
2021/07/06 05:11:30;;;;;;;7.53;5.85;;;;;;;24.78;46.86;100160.13;5076724;28;20033;-80
2021/07/06 05:14:14;;;;;;;11.45;6.15;;;;;;;24.86;46.70;100146.31;5081037;28;20062;-79
2021/07/06 05:16:40;;;;;;;9.18;5.82;;;;;;;25.00;46.42;100156.94;5077888;28;20044;-81
2021/07/06 05:19:24;;;;;;;7.63;6.47;;;;;;;25.03;45.71;100154.09;5096650;28;20024;-81
2021/07/06 05:21:50;;;;;;;10.90;6.45;;;;;;;25.15;45.79;100162.25;5095947;28;20513;-80
2021/07/06 05:24:35;;;;;;;7.45;5.70;;;;;;;25.24;44.95;100157.19;5096564;28;20126;-81
2021/07/06 05:27:19;;;;;;;9.43;6.60;;;;;;;25.42;44.77;100170.25;5096675;28;20482;-78
2021/07/06 05:30:05;;;;;;;11.80;6.50;;;;;;;25.41;44.29;100176.53;5079677;28;20043;-81
2021/07/06 05:32:50;;;;;;;7.70;5.90;;;;;;;25.50;44.31;100173.28;5095816;28;20058;-81
2021/07/06 05:35:34;;;;;;;7.57;5.50;;;;;;;25.51;43.84;100153.69;5097057;28;20177;-78
2021/07/06 05:38:02;;;;;;;8.32;6.07;;;;;;;25.62;43.66;100149.47;5097279;28;20078;-80
2021/07/06 05:40:28;;;;;;;7.72;5.68;;;;;;;25.71;43.12;100160.34;5102142;28;20076;-77
2021/07/06 05:43:12;;;;;;;11.65;5.70;;;;;;;25.78;42.83;100166.13;5107109;28;20040;-80
2021/07/06 05:45:39;;;;;;;10.00;5.20;;;;;;;25.91;42.56;100165.31;5078070;28;20039;-80
2021/07/06 05:48:23;;;;;;;7.50;4.93;;;;;;;26.21;42.58;100170.41;5095727;28;20055;-81
2021/07/06 05:51:07;;;;;;;13.43;5.60;;;;;;;26.48;41.61;100157.91;5097081;28;20082;-79
2021/07/06 05:53:33;;;;;;;5.82;5.00;;;;;;;27.09;41.68;100166.06;5097697;28;20043;-80
2021/07/06 05:55:59;;;;;;;9.18;5.65;;;;;;;28.20;39.74;100169.47;5097070;28;20078;-79
2021/07/06 05:58:44;;;;;;;5.35;4.78;;;;;;;30.31;37.68;100150.63;5097281;28;20044;-80
2021/07/06 06:01:31;;;;;;;7.80;4.55;;;;;;;32.64;34.87;100139.44;5096054;28;20043;-82
2021/07/06 06:04:16;;;;;;;5.53;4.50;;;;;;;34.76;32.07;100147.81;5097321;28;20610;-81
2021/07/06 06:07:01;;;;;;;4.90;4.05;;;;;;;36.72;29.03;100145.47;5095590;28;20036;-79
2021/07/06 06:09:45;;;;;;;8.52;4.88;;;;;;;37.80;26.76;100132.91;5088729;28;20037;-81
2021/07/06 06:12:30;;;;;;;8.52;5.13;;;;;;;39.02;25.20;100116.38;5077406;28;20040;-80
2021/07/06 06:15:14;;;;;;;6.53;5.07;;;;;;;40.14;23.51;100122.16;5077081;28;20499;-83
2021/07/06 06:17:59;;;;;;;5.63;4.72;;;;;;;41.17;22.46;100133.28;5091090;28;20044;-81
2021/07/06 06:20:43;;;;;;;6.10;4.40;;;;;;;41.48;21.39;100131.84;5097317;28;20401;-80
2021/07/06 06:23:28;;;;;;;6.43;4.80;;;;;;;42.30;20.01;100151.53;5097180;28;20626;-80
2021/07/06 06:26:12;;;;;;;6.28;4.90;;;;;;;42.44;18.97;100137.88;5095250;28;20064;-81
2021/07/06 06:28:40;;;;;;;5.55;5.05;;;;;;;41.98;18.55;100147.81;5097248;28;20043;-80
2021/07/06 06:31:07;;;;;;;7.32;5.57;;;;;;;42.16;17.93;100155.38;5078626;28;20036;-78
2021/07/06 06:33:33;;;;;;;7.35;4.35;;;;;;;41.35;17.35;100144.47;5098045;28;20500;-81
2021/07/06 06:36:18;;;;;;;5.05;4.63;;;;;;;41.62;17.95;100140.91;5104100;28;20483;-81
2021/07/06 06:39:04;;;;;;;6.07;4.90;;;;;;;40.43;18.42;100147.50;5095682;28;20117;-79
2021/07/06 06:41:48;;;;;;;8.48;4.53;;;;;;;39.54;18.90;100143.47;5094445;28;20055;-79
2021/07/06 06:44:32;;;;;;;7.03;5.18;;;;;;;38.67;19.50;100127.88;5096629;28;20130;-79
2021/07/06 06:47:17;;;;;;;9.35;4.70;;;;;;;39.95;18.67;100145.47;5101860;28;20048;-79
2021/07/06 06:50:04;;;;;;;5.25;4.68;;;;;;;41.97;17.20;100137.97;5101766;28;20089;-81
2021/07/06 06:52:48;;;;;;;6.28;4.35;;;;;;;42.07;16.82;100115.66;5094920;28;20044;-81
2021/07/06 06:55:34;;;;;;;5.70;4.45;;;;;;;43.29;16.19;100108.59;5097080;28;20032;-81
2021/07/06 06:57:59;;;;;;;7.95;4.60;;;;;;;44.34;15.35;100134.34;5095899;28;20582;-81
2021/07/06 07:00:25;;;;;;;5.10;4.65;;;;;;;44.88;14.84;100150.19;5096002;28;20074;-81
2021/07/06 07:03:10;;;;;;;4.85;4.45;;;;;;;45.04;14.23;100142.34;5079016;28;20507;-82
2021/07/06 07:05:36;;;;;;;5.80;4.60;;;;;;;45.22;13.73;100131.28;5077308;28;20058;-80
2021/07/06 07:08:21;;;;;;;5.55;5.00;;;;;;;45.38;13.18;100123.44;5095376;28;20071;-81
2021/07/06 07:11:06;;;;;;;5.88;4.30;;;;;;;46.58;13.04;100114.03;5075021;28;20040;-81
2021/07/06 07:13:50;;;;;;;6.25;5.30;;;;;;;47.69;11.79;100125.59;5076710;28;20036;-80
2021/07/06 07:16:16;;;;;;;5.88;4.88;;;;;;;47.74;12.09;100136.72;5074126;28;20045;-81
2021/07/06 07:19:00;;;;;;;5.53;5.07;;;;;;;47.22;12.14;100143.31;5094034;28;20054;-82
2021/07/06 07:21:26;;;;;;;5.45;4.90;;;;;;;46.98;11.99;100150.88;5095730;28;20048;-81
2021/07/06 07:23:52;;;;;;;5.30;4.85;;;;;;;45.66;12.53;100141.19;5102849;28;20066;-82
2021/07/06 07:26:37;;;;;;;9.70;5.22;;;;;;;43.91;13.50;100138.81;5096183;28;20426;-81
2021/07/06 07:29:21;;;;;;;6.00;4.93;;;;;;;43.47;14.20;100141.50;5096610;28;20028;-81
2021/07/06 07:31:47;;;;;;;9.15;5.30;;;;;;;43.46;13.71;100139.00;5093274;28;20040;-78
2021/07/06 07:34:34;;;;;;;6.05;4.72;;;;;;;44.54;13.78;100133.28;5094282;28;20067;-81
2021/07/06 07:37:03;;;;;;;5.60;4.22;;;;;;;45.82;13.29;100120.41;5093806;28;20580;-79
2021/07/06 07:39:29;;;;;;;5.13;4.68;;;;;;;45.85;13.27;100137.22;5096112;28;20048;-80
2021/07/06 07:42:16;;;;;;;5.57;5.07;;;;;;;46.13;13.07;100130.19;5094481;28;20503;-80
2021/07/06 07:45:00;;;;;;;5.57;5.07;;;;;;;45.73;12.77;100109.75;5094230;28;20036;-82
2021/07/06 07:47:45;;;;;;;7.65;4.85;;;;;;;45.56;13.05;100122.53;5090695;28;20573;-86
2021/07/06 07:50:30;;;;;;;5.45;4.18;;;;;;;46.45;12.60;100109.69;5086921;28;20044;-79
2021/07/06 07:52:56;;;;;;;5.80;4.75;;;;;;;47.60;12.05;100113.38;5084267;28;20047;-78
2021/07/06 07:55:22;;;;;;;5.32;4.78;;;;;;;48.49;11.29;100130.00;5098639;28;20040;-76
2021/07/06 07:58:07;;;;;;;4.97;4.57;;;;;;;48.13;11.39;100127.63;5091261;28;20427;-80
2021/07/06 08:00:51;;;;;;;5.45;5.05;;;;;;;47.08;11.28;100122.69;5092457;28;20055;-79
2021/07/06 08:03:24;;;;;;;5.93;4.80;;;;;;;47.42;11.16;100118.03;5092350;28;20564;-78
2021/07/06 08:06:09;;;;;;;7.20;4.50;;;;;;;48.66;10.88;100119.69;5106395;28;20191;-79
2021/07/06 08:08:35;;;;;;;5.00;4.60;;;;;;;49.43;10.22;100133.41;5088697;28;20792;-77
2021/07/06 08:11:20;;;;;;;6.38;4.53;;;;;;;48.14;10.63;100128.44;5071436;28;20453;-77
2021/07/06 08:13:46;;;;;;;5.78;4.70;;;;;;;45.79;11.33;100124.47;5091655;28;20065;-76
2021/07/06 08:16:11;;;;;;;6.68;4.70;;;;;;;44.74;12.60;100112.97;5092772;28;20392;-77
2021/07/06 08:18:38;;;;;;;5.10;4.57;;;;;;;46.21;11.50;100117.97;5082605;28;20047;-78
2021/07/06 08:21:22;;;;;;;5.40;4.63;;;;;;;46.67;11.25;100118.09;5071962;28;20040;-77
2021/07/06 08:24:08;;;;;;;5.15;4.20;;;;;;;47.87;11.13;100115.41;5071972;28;20557;-77
2021/07/06 08:26:52;;;;;;;4.40;4.00;;;;;;;49.99;10.21;100118.28;5070824;28;20066;-78
2021/07/06 08:29:37;;;;;;;5.63;4.85;;;;;;;50.48;10.07;100121.78;5072409;28;20037;-79
2021/07/06 08:32:21;;;;;;;12.18;4.80;;;;;;;49.95;9.68;100106.13;5075898;28;20046;-75
2021/07/06 08:34:47;;;;;;;5.90;4.80;;;;;;;50.14;9.80;100108.44;5092214;28;20086;-79
2021/07/06 08:37:14;;;;;;;7.28;4.35;;;;;;;49.50;10.03;100122.13;5095979;28;20039;-77
2021/07/06 08:39:59;;;;;;;5.55;4.38;;;;;;;48.00;10.77;100104.03;5094778;28;20032;-78
2021/07/06 08:42:44;;;;;;;6.03;4.57;;;;;;;47.55;10.53;100129.78;5093829;28;20089;-75
2021/07/06 08:45:11;;;;;;;5.05;4.55;;;;;;;47.43;10.60;100113.34;5094139;28;20055;-78
2021/07/06 08:47:56;;;;;;;5.03;4.63;;;;;;;47.15;10.81;100118.69;5092640;28;20144;-79
2021/07/06 08:50:23;;;;;;;5.07;4.68;;;;;;;47.19;11.19;100114.38;5092217;28;20051;-77
2021/07/06 08:52:49;;;;;;;5.03;4.63;;;;;;;48.49;10.29;100113.47;5094537;28;20423;-81
2021/07/06 08:55:19;;;;;;;4.65;4.15;;;;;;;49.12;10.30;100110.25;5094167;28;20481;-81
2021/07/06 08:58:03;;;;;;;4.73;4.33;;;;;;;48.83;10.38;100114.09;5078224;28;20036;-80
2021/07/06 09:00:48;;;;;;;4.95;4.45;;;;;;;48.41;9.79;100106.47;5095619;28;20047;-77
2021/07/06 09:04:02;;;;;;;7.22;5.35;;;;;;;45.35;11.01;100112.97;5098574;28;20048;-78
2021/07/06 09:06:57;;;;;;;5.53;4.35;;;;;;;43.99;12.19;100099.31;5092195;28;20040;-82
2021/07/06 09:09:28;;;;;;;4.68;4.28;;;;;;;45.21;12.54;100102.16;5084237;28;20108;-81
2021/07/06 09:12:00;;;;;;;5.32;4.13;;;;;;;46.14;11.89;100087.03;5072080;28;20131;-80
2021/07/06 09:14:49;;;;;;;5.75;4.50;;;;;;;48.19;10.54;100095.44;5056620;28;20493;-82
2021/07/06 09:17:33;;;;;;;6.55;3.95;;;;;;;49.36;10.32;100102.41;5081030;28;20182;-80
2021/07/06 09:20:17;;;;;;;5.40;4.97;;;;;;;48.46;10.21;100095.47;5091726;28;20058;-80
2021/07/06 09:23:19;;;;;;;6.10;4.47;;;;;;;47.47;10.61;100089.72;5077036;28;20562;-80
2021/07/06 09:25:45;;;;;;;4.65;4.25;;;;;;;48.39;10.06;100090.16;5074243;28;20138;-80
2021/07/06 09:28:22;;;;;;;4.78;4.13;;;;;;;49.41;9.80;100090.56;5074005;28;20144;-81
2021/07/06 09:30:48;;;;;;;5.15;4.75;;;;;;;48.52;9.18;100086.16;5092623;28;20047;-82
2021/07/06 09:33:33;;;;;;;4.90;4.30;;;;;;;45.56;10.82;100095.06;5090808;28;20043;-78
2021/07/06 09:35:59;;;;;;;6.05;4.65;;;;;;;44.73;11.81;100084.72;5090460;28;20051;-80
2021/07/06 09:38:24;;;;;;;9.48;5.00;;;;;;;44.23;11.90;100086.63;5074744;28;20054;-80
2021/07/06 09:40:51;;;;;;;5.68;4.65;;;;;;;44.90;11.63;100084.09;5094902;28;20556;-78
2021/07/06 09:43:25;;;;;;;5.93;4.68;;;;;;;45.97;11.11;100075.94;5077814;28;20060;-78
2021/07/06 09:46:10;;;;;;;6.30;4.80;;;;;;;46.24;11.11;100061.66;5095906;28;20063;-79
2021/07/06 09:49:00;;;;;;;5.95;4.50;;;;;;;46.72;11.03;100076.91;5095826;28;20036;-80
2021/07/06 09:51:26;;;;;;;4.88;4.22;;;;;;;48.08;10.94;100084.28;5078793;28;20043;-79
2021/07/06 09:54:23;;;;;;;5.18;4.63;;;;;;;48.15;9.96;100070.31;5095726;28;20453;-81
2021/07/06 09:56:51;;;;;;;4.75;4.30;;;;;;;47.12;10.39;100079.81;5094528;28;20071;-81
2021/07/06 09:59:36;;;;;;;6.97;4.88;;;;;;;45.83;11.09;100078.94;5095273;28;20058;-81
2021/07/06 10:02:21;;;;;;;5.82;4.38;;;;;;;45.20;11.63;100081.28;5095246;28;20059;-77
2021/07/06 10:04:52;;;;;;;5.30;4.50;;;;;;;45.25;11.22;100078.69;5078098;28;20082;-81
2021/07/06 10:07:39;;;;;;;5.03;3.90;;;;;;;44.91;11.00;100081.09;5094606;28;20067;-81
2021/07/06 10:10:23;;;;;;;6.38;4.43;;;;;;;44.78;11.56;100075.78;5088235;28;20040;-81
2021/07/06 10:12:50;;;;;;;4.57;4.18;;;;;;;44.92;10.81;100074.53;5073070;28;20046;-79
2021/07/06 10:15:34;;;;;;;4.80;4.07;;;;;;;44.65;10.84;100083.16;5073286;28;20036;-78
2021/07/06 10:18:20;;;;;;;6.07;4.93;;;;;;;43.97;11.45;100070.47;5088785;28;20051;-79
2021/07/06 10:20:46;;;;;;;5.35;4.60;;;;;;;42.87;12.87;100068.88;5076329;28;20047;-80
2021/07/06 10:23:37;;;;;;;5.93;4.30;;;;;;;43.39;12.60;100062.38;5093508;28;20046;-81
2021/07/06 10:26:25;;;;;;;4.68;4.18;;;;;;;44.32;12.06;100057.00;5093124;28;20047;-77
2021/07/06 10:29:10;;;;;;;4.53;4.10;;;;;;;43.18;12.42;100052.66;5096239;28;20600;-78
2021/07/06 10:31:55;;;;;;;6.50;4.72;;;;;;;41.89;12.57;100062.53;5093481;28;20546;-79
2021/07/06 10:34:45;;;;;;;5.10;4.60;;;;;;;39.54;14.27;100067.25;5095891;28;20047;-79
2021/07/06 10:37:31;;;;;;;6.95;4.50;;;;;;;37.84;15.24;100068.22;5096494;28;20121;-78
2021/07/06 10:40:24;;;;;;;6.90;4.70;;;;;;;36.37;16.23;100066.34;5074552;28;20039;-78
2021/07/06 10:43:09;;;;;;;5.63;4.57;;;;;;;35.31;16.81;100056.41;5087563;28;20119;-80
2021/07/06 10:45:56;;;;;;;5.90;4.50;;;;;;;34.11;18.31;100067.34;5096353;28;20040;-77
2021/07/06 10:48:43;;;;;;;5.05;4.55;;;;;;;33.65;19.11;100068.38;5080246;28;20047;-78
2021/07/06 10:51:37;;;;;;;5.93;4.45;;;;;;;32.87;20.25;100070.75;5093689;28;20073;-79
2021/07/06 10:54:30;;;;;;;5.85;4.55;;;;;;;32.44;20.42;100062.31;5098201;28;20044;-79
2021/07/06 10:57:07;;;;;;;5.80;4.70;;;;;;;32.10;20.92;100065.56;5099155;28;20036;-80
2021/07/06 10:59:35;;;;;;;5.80;4.68;;;;;;;31.64;21.66;100054.59;5101157;28;20035;-80
2021/07/06 11:02:23;;;;;;;4.90;4.38;;;;;;;31.39;21.60;100066.81;5100018;28;20040;-78
2021/07/06 11:05:07;;;;;;;6.50;4.70;;;;;;;30.93;22.28;100053.91;5096715;28;20046;-78
2021/07/06 11:07:35;;;;;;;8.07;4.60;;;;;;;30.72;23.24;100061.22;5096051;28;20056;-80
2021/07/06 11:10:21;;;;;;;6.10;4.30;;;;;;;30.55;23.80;100058.19;5086544;28;20063;-77
2021/07/06 11:13:18;;;;;;;12.55;5.40;;;;;;;30.59;23.97;100059.63;5086069;28;20040;-76
2021/07/06 11:16:23;;;;;;;4.80;4.28;;;;;;;30.71;23.79;100054.97;5085504;28;20021;-77
2021/07/06 11:19:33;;;;;;;4.95;4.10;;;;;;;30.33;24.50;100054.72;5096275;28;20042;-78
2021/07/06 11:22:13;;;;;;;4.78;4.18;;;;;;;30.17;24.74;100054.34;5111972;28;20024;-77
2021/07/06 11:25:20;;;;;;;5.93;4.18;;;;;;;29.87;24.19;100064.09;5111183;28;20047;-80
2021/07/06 11:28:14;;;;;;;7.05;4.20;;;;;;;29.56;24.59;100046.13;5112524;28;20048;-77
2021/07/06 11:31:02;;;;;;;6.00;4.40;;;;;;;29.70;24.67;100057.47;5096837;28;20032;-78
2021/07/06 11:33:31;;;;;;;5.05;4.30;;;;;;;29.85;24.60;100045.44;5112513;28;20051;-79
2021/07/06 11:36:19;;;;;;;7.60;4.15;;;;;;;29.88;24.50;100042.47;5105012;28;20514;-78
2021/07/06 11:39:06;;;;;;;6.10;3.90;;;;;;;29.68;24.48;100049.56;5102871;28;20089;-77
2021/07/06 11:41:34;;;;;;;5.45;4.10;;;;;;;29.54;24.50;100052.56;5096370;28;20035;-77
2021/07/06 11:44:09;;;;;;;6.03;4.07;;;;;;;29.26;24.96;100050.38;5077879;28;20043;-74
2021/07/06 11:46:35;;;;;;;5.28;4.00;;;;;;;29.18;24.93;100042.13;5095198;28;20036;-79
2021/07/06 11:49:01;;;;;;;4.88;4.38;;;;;;;29.29;25.09;100062.66;5094202;28;20050;-73
2021/07/06 11:51:27;;;;;;;6.68;4.07;;;;;;;28.94;25.18;100061.09;5093517;28;20044;-77
2021/07/06 11:53:59;;;;;;;4.93;4.00;;;;;;;28.64;25.72;100059.91;5075775;28;20043;-78
2021/07/06 11:56:27;;;;;;;5.45;4.20;;;;;;;28.37;26.06;100053.97;5094443;28;20040;-78
2021/07/06 11:58:54;;;;;;;5.20;4.03;;;;;;;28.11;26.14;100040.00;5093029;28;20495;-79
2021/07/06 12:01:21;;;;;;;5.45;3.55;;;;;;;28.10;26.25;100057.00;5093463;28;20131;-79
2021/07/06 12:03:47;;;;;;;5.57;3.65;;;;;;;28.01;25.84;100060.38;5094590;28;20527;-75
2021/07/06 12:06:18;;;;;;;4.32;3.92;;;;;;;28.05;26.07;100056.50;5080171;28;20036;-78
2021/07/06 12:08:47;;;;;;;6.80;4.30;;;;;;;27.96;26.26;100050.88;5076282;28;20056;-74
2021/07/06 12:11:14;;;;;;;5.25;3.90;;;;;;;27.98;26.54;100049.91;5074562;28;20036;-77
2021/07/06 12:13:40;;;;;;;7.95;4.00;;;;;;;27.94;26.38;100054.66;5073047;28;20048;-74
2021/07/06 12:16:23;;;;;;;5.97;4.45;;;;;;;27.90;26.51;100053.19;5055885;28;20097;-78